Time,TemperatureF,DewpointF,PressureIn,WindDirection,WindDirectionDegrees,WindSpeedMPH,WindSpeedGustMPH,Humidity,HourlyPrecipIn,Conditions,Clouds,dailyrainin,SoftwareType,DateUTC
2013-05-08 00:00:00,48.7,48.7,29.97,South,180,2.5,2.5,100,0.00,,,0.00,VWS V14.01,2013-05-08 04:00:00,
2013-05-08 00:01:00,48.1,48.1,29.97,South,180,1.6,1.6,100,0.00,,,0.00,VWS V14.01,2013-05-08 04:01:00,
2013-05-08 00:06:00,48.1,48.1,29.97,South,180,2.5,2.5,100,0.00,,,0.00,VWS V14.01,2013-05-08 04:06:00,
2013-05-08 00:11:00,48.0,48.0,29.97,South,180,0.9,0.9,100,0.00,,,0.00,VWS V14.01,2013-05-08 04:11:00,
2013-05-08 00:15:00,48.1,48.1,29.97,SSW,202,1.3,1.3,100,0.00,,,0.00,VWS V14.01,2013-05-08 04:15:00,
2013-05-08 00:16:00,48.3,48.3,29.97,South,180,2.5,2.5,100,0.00,,,0.00,VWS V14.01,2013-05-08 04:16:00,
2013-05-08 00:21:00,48.7,48.7,29.97,SSW,202,1.3,1.3,100,0.00,,,0.00,VWS V14.01,2013-05-08 04:21:00,
2013-05-08 00:26:00,48.1,48.1,29.97,SSE,158,3.4,3.4,100,0.00,,,0.00,VWS V14.01,2013-05-08 04:26:00,
2013-05-08 00:30:00,48.3,48.3,29.97,SSE,158,2.9,2.9,100,0.00,,,0.00,VWS V14.01,2013-05-08 04:30:00,
2013-05-08 00:31:00,48.0,48.0,29.97,South,180,2.7,2.7,100,0.00,,,0.00,VWS V14.01,2013-05-08 04:31:00,
2013-05-08 00:36:00,48.1,48.1,29.97,SSW,202,0.0,0.0,100,0.00,,,0.00,VWS V14.01,2013-05-08 04:36:00,
2013-05-08 00:41:00,48.3,48.3,29.97,SSW,202,1.3,1.3,100,0.00,,,0.00,VWS V14.01,2013-05-08 04:41:00,
2013-05-08 00:45:00,48.1,48.1,29.97,SSW,202,1.1,1.1,100,0.00,,,0.00,VWS V14.01,2013-05-08 04:45:00,
2013-05-08 00:46:00,48.1,48.1,29.97,SSW,202,0.0,0.0,100,0.00,,,0.00,VWS V14.01,2013-05-08 04:46:00,
2013-05-08 00:51:00,48.1,48.1,29.97,SSW,202,0.0,0.0,100,0.00,,,0.00,VWS V14.01,2013-05-08 04:51:00,
2013-05-08 00:56:00,47.8,47.8,29.97,South,180,2.7,2.7,100,0.00,,,0.00,VWS V14.01,2013-05-08 04:56:00,
2013-05-08 01:00:00,47.8,47.8,29.97,South,180,2.5,2.5,100,0.00,,,0.00,VWS V14.01,2013-05-08 05:00:00,
2013-05-08 01:01:00,48.0,48.0,29.97,South,180,1.1,1.1,100,0.00,,,0.00,VWS V14.01,2013-05-08 05:01:00,
2013-05-08 01:06:00,48.1,48.1,29.97,SSW,202,0.0,0.0,100,0.00,,,0.00,VWS V14.01,2013-05-08 05:06:00,
2013-05-08 01:11:00,48.5,48.5,29.97,SW,225,0.0,0.0,100,0.00,,,0.00,VWS V14.01,2013-05-08 05:11:00,
2013-05-08 01:16:00,48.7,48.7,29.97,South,180,0.0,0.0,100,0.00,,,0.00,VWS V14.01,2013-05-08 05:16:00,
2013-05-08 01:21:00,48.5,48.5,29.94,South,180,0.0,0.0,100,0.00,,,0.00,VWS V14.01,2013-05-08 05:21:00,
2013-05-08 01:26:00,48.7,48.7,29.94,SSW,202,0.0,0.0,100,0.00,,,0.00,VWS V14.01,2013-05-08 05:26:00,
2013-05-08 01:30:00,48.7,48.7,29.94,SW,225,0.0,0.0,100,0.00,,,0.00,VWS V14.01,2013-05-08 05:30:00,
2013-05-08 01:31:00,48.8,48.9,29.94,SW,225,0.0,0.0,100,0.00,,,0.00,VWS V14.01,2013-05-08 05:31:00,
2013-05-08 01:36:00,48.5,48.5,29.97,SSW,202,0.0,0.0,100,0.00,,,0.00,VWS V14.01,2013-05-08 05:36:00,
2013-05-08 01:41:00,48.5,48.5,29.97,SSW,202,0.0,0.0,100,0.00,,,0.00,VWS V14.01,2013-05-08 05:41:00,
2013-05-08 01:45:00,48.7,48.7,29.97,SSW,202,0.0,0.0,100,0.00,,,0.00,VWS V14.01,2013-05-08 05:45:00,
2013-05-08 01:46:00,48.7,48.7,29.97,SSW,202,0.0,0.0,100,0.00,,,0.00,VWS V14.01,2013-05-08 05:46:00,
2013-05-08 01:51:00,48.3,48.3,29.97,WNW,292,0.0,0.0,100,0.00,,,0.00,VWS V14.01,2013-05-08 05:51:00,
2013-05-08 01:56:00,48.3,48.3,29.97,SSW,202,0.0,0.0,100,0.00,,,0.00,VWS V14.01,2013-05-08 05:56:00,
2013-05-08 02:00:00,48.3,48.3,29.97,West,270,0.0,0.0,100,0.00,,,0.00,VWS V14.01,2013-05-08 06:00:00,
2013-05-08 02:01:00,48.3,48.3,29.97,SSW,202,0.0,0.0,100,0.00,,,0.00,VWS V14.01,2013-05-08 06:01:00,
2013-05-08 02:06:00,48.0,48.0,29.97,SSW,202,0.0,0.0,100,0.00,,,0.00,VWS V14.01,2013-05-08 06:06:00,
2013-05-08 02:11:00,48.0,48.0,29.97,East,90,0.0,0.0,100,0.00,,,0.00,VWS V14.01,2013-05-08 06:11:00,
2013-05-08 02:15:00,48.0,48.0,29.97,SE,135,0.0,0.0,100,0.00,,,0.00,VWS V14.01,2013-05-08 06:15:00,
2013-05-08 02:16:00,47.8,47.8,29.97,SSE,158,0.0,0.0,100,0.00,,,0.00,VWS V14.01,2013-05-08 06:16:00,
2013-05-08 02:21:00,47.8,47.8,29.97,South,180,0.0,0.0,100,0.00,,,0.00,VWS V14.01,2013-05-08 06:21:00,
2013-05-08 02:26:00,47.4,47.4,29.97,SE,135,0.0,0.0,100,0.00,,,0.00,VWS V14.01,2013-05-08 06:26:00,
2013-05-08 02:30:00,47.4,47.4,29.97,SE,135,0.0,0.0,100,0.00,,,0.00,VWS V14.01,2013-05-08 06:30:00,
2013-05-08 02:31:00,47.4,47.4,29.97,SE,135,0.0,0.0,100,0.00,,,0.00,VWS V14.01,2013-05-08 06:31:00,
2013-05-08 02:36:00,47.2,47.2,29.97,SE,135,0.0,0.0,100,0.00,,,0.00,VWS V14.01,2013-05-08 06:36:00,
2013-05-08 02:41:00,47.2,47.2,29.97,ENE,68,0.0,0.0,100,0.00,,,0.00,VWS V14.01,2013-05-08 06:41:00,
2013-05-08 02:45:00,47.2,47.2,29.97,SE,135,0.0,0.0,100,0.00,,,0.00,VWS V14.01,2013-05-08 06:45:00,
2013-05-08 02:46:00,46.9,46.9,29.97,WSW,248,0.0,0.0,100,0.00,,,0.00,VWS V14.01,2013-05-08 06:46:00,
2013-05-08 02:51:00,46.9,46.9,29.97,SSW,202,0.0,0.0,100,0.00,,,0.00,VWS V14.01,2013-05-08 06:51:00,
2013-05-08 02:56:00,46.7,46.7,29.97,SSW,202,0.0,0.0,100,0.00,,,0.00,VWS V14.01,2013-05-08 06:56:00,
2013-05-08 03:00:00,46.7,46.7,29.97,SSW,202,0.0,0.0,100,0.00,,,0.00,VWS V14.01,2013-05-08 07:00:00,
2013-05-08 03:01:00,46.5,46.5,29.97,SSW,202,0.0,0.0,100,0.00,,,0.00,VWS V14.01,2013-05-08 07:01:00,
2013-05-08 03:06:00,46.3,46.3,29.97,SSW,202,0.0,0.0,100,0.00,,,0.00,VWS V14.01,2013-05-08 07:06:00,
2013-05-08 03:11:00,46.5,46.5,29.97,SSW,202,0.0,0.0,100,0.00,,,0.00,VWS V14.01,2013-05-08 07:11:00,
2013-05-08 03:15:00,46.5,46.5,29.97,SSW,202,0.0,0.0,100,0.00,,,0.00,VWS V14.01,2013-05-08 07:15:00,
2013-05-08 03:16:00,47.0,47.0,29.97,SSW,202,0.0,0.0,100,0.00,,,0.00,VWS V14.01,2013-05-08 07:16:00,
2013-05-08 03:21:00,47.0,47.0,29.97,WSW,248,0.0,0.0,100,0.00,,,0.00,VWS V14.01,2013-05-08 07:21:00,
2013-05-08 03:26:00,47.0,47.0,29.97,West,270,0.0,0.0,100,0.00,,,0.00,VWS V14.01,2013-05-08 07:26:00,
2013-05-08 03:30:00,46.7,46.7,29.97,SSE,158,0.0,0.0,100,0.00,,,0.00,VWS V14.01,2013-05-08 07:30:00,
2013-05-08 03:31:00,46.5,46.5,29.97,SE,135,0.0,0.0,100,0.00,,,0.00,VWS V14.01,2013-05-08 07:31:00,
2013-05-08 03:36:00,46.5,46.5,29.97,SSE,158,0.0,0.0,100,0.00,,,0.00,VWS V14.01,2013-05-08 07:36:00,
2013-05-08 03:41:00,46.2,46.2,29.97,SSE,158,0.0,0.0,100,0.00,,,0.00,VWS V14.01,2013-05-08 07:41:00,
2013-05-08 03:45:00,46.2,46.2,29.97,SSE,158,0.0,0.0,100,0.00,,,0.00,VWS V14.01,2013-05-08 07:45:00,
2013-05-08 03:46:00,46.2,46.2,29.97,SSE,158,0.0,0.0,100,0.00,,,0.00,VWS V14.01,2013-05-08 07:46:00,
2013-05-08 03:51:00,46.0,46.0,29.97,SW,225,0.0,0.0,100,0.00,,,0.00,VWS V14.01,2013-05-08 07:51:00,
2013-05-08 03:56:00,46.2,46.2,29.97,NNE,22,0.0,0.0,100,0.00,,,0.00,VWS V14.01,2013-05-08 07:56:00,
2013-05-08 04:00:00,46.2,46.2,29.97,NNE,22,0.0,0.0,100,0.00,,,0.00,VWS V14.01,2013-05-08 08:00:00,
2013-05-08 04:01:00,46.0,46.0,29.97,ENE,68,0.0,0.0,100,0.00,,,0.00,VWS V14.01,2013-05-08 08:01:00,
2013-05-08 04:06:00,45.8,45.8,29.97,ENE,68,0.0,0.0,100,0.00,,,0.00,VWS V14.01,2013-05-08 08:06:00,
2013-05-08 04:11:00,45.8,45.8,29.97,SSE,158,0.0,0.0,100,0.00,,,0.00,VWS V14.01,2013-05-08 08:11:00,
2013-05-08 04:15:00,45.8,45.8,29.97,South,180,0.0,0.0,100,0.00,,,0.00,VWS V14.01,2013-05-08 08:15:00,
2013-05-08 04:16:00,46.2,46.2,29.97,SSW,202,0.0,0.0,100,0.00,,,0.00,VWS V14.01,2013-05-08 08:16:00,
2013-05-08 04:21:00,46.3,46.3,29.97,NW,315,0.0,0.0,100,0.00,,,0.00,VWS V14.01,2013-05-08 08:21:00,
2013-05-08 04:26:00,46.7,46.7,29.97,WNW,292,0.0,0.0,100,0.00,,,0.00,VWS V14.01,2013-05-08 08:26:00,
2013-05-08 04:30:00,46.7,46.7,29.97,WNW,292,0.0,0.0,100,0.00,,,0.00,VWS V14.01,2013-05-08 08:30:00,
2013-05-08 04:31:00,46.7,46.7,29.97,SE,135,0.0,0.0,100,0.00,,,0.00,VWS V14.01,2013-05-08 08:31:00,
2013-05-08 04:36:00,46.5,46.5,29.97,SE,135,0.0,0.0,100,0.00,,,0.00,VWS V14.01,2013-05-08 08:36:00,
2013-05-08 04:41:00,46.5,46.5,29.97,SSE,158,0.0,0.0,100,0.00,,,0.00,VWS V14.01,2013-05-08 08:41:00,
2013-05-08 04:45:00,46.5,46.5,29.97,SSE,158,0.0,0.0,100,0.00,,,0.00,VWS V14.01,2013-05-08 08:45:00,
2013-05-08 04:46:00,46.7,46.7,29.97,South,180,0.0,0.0,100,0.00,,,0.00,VWS V14.01,2013-05-08 08:46:00,
2013-05-08 04:51:00,46.9,46.9,29.97,SSW,202,0.0,0.0,100,0.00,,,0.00,VWS V14.01,2013-05-08 08:51:00,
2013-05-08 04:56:00,47.0,47.0,29.97,SSE,158,0.0,0.0,100,0.00,,,0.00,VWS V14.01,2013-05-08 08:56:00,
2013-05-08 05:00:00,47.0,47.1,29.97,SSE,158,0.0,0.0,100,0.00,,,0.00,VWS V14.01,2013-05-08 09:00:00,
2013-05-08 05:01:00,47.0,47.0,29.97,South,180,0.0,0.0,100,0.00,,,0.00,VWS V14.01,2013-05-08 09:01:00,
2013-05-08 05:06:00,47.2,47.2,29.97,South,180,0.0,0.0,100,0.00,,,0.00,VWS V14.01,2013-05-08 09:06:00,
2013-05-08 05:11:00,47.4,47.4,29.97,WNW,292,0.0,0.0,100,0.00,,,0.00,VWS V14.01,2013-05-08 09:11:00,
2013-05-08 05:15:00,47.4,47.4,29.97,SSE,158,0.0,0.0,100,0.00,,,0.00,VWS V14.01,2013-05-08 09:15:00,
2013-05-08 05:16:00,47.6,47.6,29.97,WNW,292,0.0,0.0,100,0.00,,,0.00,VWS V14.01,2013-05-08 09:16:00,
2013-05-08 05:21:00,47.8,47.8,29.97,South,180,0.0,0.0,100,0.00,,,0.00,VWS V14.01,2013-05-08 09:21:00,
2013-05-08 05:26:00,48.0,48.0,29.97,WNW,292,0.0,0.0,100,0.00,,,0.00,VWS V14.01,2013-05-08 09:26:00,
2013-05-08 05:30:00,48.0,48.0,29.97,WNW,292,0.0,0.0,100,0.00,,,0.00,VWS V14.01,2013-05-08 09:30:00,
2013-05-08 05:31:00,48.0,48.0,29.97,NNW,338,0.0,0.0,100,0.00,,,0.00,VWS V14.01,2013-05-08 09:31:00,
2013-05-08 05:36:00,48.0,48.0,29.97,NNW,338,0.0,0.0,100,0.00,,,0.00,VWS V14.01,2013-05-08 09:36:00,
2013-05-08 05:40:00,48.1,48.1,29.97,WNW,292,0.0,0.0,100,0.00,,,0.00,VWS V14.01,2013-05-08 09:40:00,
2013-05-08 05:45:00,48.1,48.1,29.97,NW,315,0.0,0.0,100,0.00,,,0.00,VWS V14.01,2013-05-08 09:45:00,
2013-05-08 05:50:00,48.5,48.5,29.97,WNW,292,0.0,0.0,100,0.00,,,0.00,VWS V14.01,2013-05-08 09:50:00,
2013-05-08 05:55:00,48.5,48.5,29.97,SSW,202,0.0,0.0,100,0.00,,,0.00,VWS V14.01,2013-05-08 09:55:00,
2013-05-08 06:00:00,48.5,48.5,29.97,SSW,202,0.0,0.0,100,0.00,,,0.00,VWS V14.01,2013-05-08 10:00:00,
2013-05-08 06:05:00,48.5,48.5,29.97,SSW,202,0.0,0.0,100,0.00,,,0.00,VWS V14.01,2013-05-08 10:05:00,
2013-05-08 06:10:00,48.7,48.7,29.97,SSE,158,0.0,0.0,100,0.00,,,0.00,VWS V14.01,2013-05-08 10:10:00,
2013-05-08 06:15:00,48.7,48.7,29.97,South,180,2.5,2.5,100,0.00,,,0.00,VWS V14.01,2013-05-08 10:15:00,
2013-05-08 06:20:00,48.8,48.9,30.00,South,180,0.0,0.0,100,0.00,,,0.00,VWS V14.01,2013-05-08 10:20:00,
2013-05-08 06:25:00,49.0,49.0,30.00,SSW,202,0.0,0.0,100,0.00,,,0.00,VWS V14.01,2013-05-08 10:25:00,
2013-05-08 06:30:00,49.6,49.6,30.00,SSW,202,0.0,0.0,100,0.00,,,0.00,VWS V14.01,2013-05-08 10:30:00,
2013-05-08 06:35:00,49.6,49.6,30.00,SSW,202,0.0,0.0,100,0.00,,,0.00,VWS V14.01,2013-05-08 10:35:00,
2013-05-08 06:40:00,49.8,49.8,30.00,West,270,0.0,0.0,100,0.00,,,0.00,VWS V14.01,2013-05-08 10:40:00,
2013-05-08 06:45:00,49.9,49.9,30.00,SSW,202,0.0,0.0,100,0.00,,,0.00,VWS V14.01,2013-05-08 10:45:00,
2013-05-08 06:50:00,50.1,50.1,30.00,South,180,1.1,1.1,100,0.00,,,0.00,VWS V14.01,2013-05-08 10:50:00,
2013-05-08 06:55:00,50.1,50.1,30.00,South,180,0.0,0.0,100,0.00,,,0.00,VWS V14.01,2013-05-08 10:55:00,
2013-05-08 07:00:00,50.1,50.1,30.00,South,180,0.0,0.0,100,0.00,,,0.00,VWS V14.01,2013-05-08 11:00:00,
2013-05-08 07:05:00,50.5,50.5,30.03,SSW,202,0.0,0.0,100,0.00,,,0.00,VWS V14.01,2013-05-08 11:05:00,
2013-05-08 07:10:00,50.7,50.7,30.03,SSW,202,0.0,0.0,100,0.00,,,0.00,VWS V14.01,2013-05-08 11:10:00,
2013-05-08 07:15:00,50.7,50.7,30.03,SSW,202,0.0,0.0,100,0.00,,,0.00,VWS V14.01,2013-05-08 11:15:00,
2013-05-08 07:20:00,50.8,50.8,30.06,SSW,202,0.0,0.0,100,0.00,,,0.00,VWS V14.01,2013-05-08 11:20:00,
2013-05-08 07:25:00,50.8,50.8,30.06,NW,315,1.1,1.1,100,0.00,,,0.00,VWS V14.01,2013-05-08 11:25:00,
2013-05-08 07:30:00,50.8,50.8,30.06,WNW,292,0.0,0.0,100,0.00,,,0.00,VWS V14.01,2013-05-08 11:30:00,
2013-05-08 07:35:00,51.0,51.0,30.03,SSW,202,0.0,0.0,100,0.00,,,0.00,VWS V14.01,2013-05-08 11:35:00,
2013-05-08 07:40:00,51.2,51.2,30.03,SSW,202,0.0,0.0,100,0.00,,,0.00,VWS V14.01,2013-05-08 11:40:00,
2013-05-08 07:45:00,51.2,51.2,30.03,SSW,202,0.0,0.0,100,0.00,,,0.00,VWS V14.01,2013-05-08 11:45:00,
2013-05-08 07:50:00,51.4,51.4,30.00,SSW,202,0.0,0.0,100,0.00,,,0.00,VWS V14.01,2013-05-08 11:50:00,
2013-05-08 07:55:00,51.5,51.6,30.00,SSW,202,0.0,0.0,100,0.00,,,0.00,VWS V14.01,2013-05-08 11:55:00,
2013-05-08 08:00:00,51.7,51.7,30.00,SSW,202,0.0,0.0,100,0.00,,,0.00,VWS V14.01,2013-05-08 12:00:00,
2013-05-08 08:05:00,51.9,51.9,30.03,SSW,202,0.0,0.0,100,0.00,,,0.00,VWS V14.01,2013-05-08 12:05:00,
2013-05-08 08:10:00,52.3,52.3,30.03,SSW,202,0.0,0.0,100,0.00,,,0.00,VWS V14.01,2013-05-08 12:10:00,
2013-05-08 08:15:00,52.6,52.6,30.03,WNW,292,0.0,0.0,100,0.00,,,0.00,VWS V14.01,2013-05-08 12:15:00,
2013-05-08 08:20:00,52.8,52.8,30.03,NW,315,1.6,1.6,100,0.00,,,0.00,VWS V14.01,2013-05-08 12:20:00,
2013-05-08 08:25:00,53.0,53.0,30.03,WNW,292,0.0,0.0,100,0.00,,,0.00,VWS V14.01,2013-05-08 12:25:00,
2013-05-08 08:30:00,53.3,53.4,30.03,NNW,338,0.0,0.0,100,0.00,,,0.00,VWS V14.01,2013-05-08 12:30:00,
2013-05-08 08:35:00,53.5,53.5,30.03,NNW,338,0.0,0.0,100,0.00,,,0.00,VWS V14.01,2013-05-08 12:35:00,
2013-05-08 08:40:00,53.9,53.9,30.03,NNE,22,0.0,0.0,100,0.00,,,0.00,VWS V14.01,2013-05-08 12:40:00,
2013-05-08 08:45:00,54.4,54.4,30.03,NNE,22,0.0,0.0,100,0.00,,,0.00,VWS V14.01,2013-05-08 12:45:00,
2013-05-08 08:50:00,54.6,54.6,30.03,SSE,158,0.0,0.0,100,0.00,,,0.00,VWS V14.01,2013-05-08 12:50:00,
2013-05-08 08:55:00,54.8,54.8,30.03,East,90,0.0,0.0,100,0.00,,,0.00,VWS V14.01,2013-05-08 12:55:00,
2013-05-08 09:00:00,55.0,55.0,30.03,ESE,112,0.0,0.0,100,0.00,,,0.00,VWS V14.01,2013-05-08 13:00:00,
2013-05-08 09:05:00,55.2,55.2,30.03,East,90,0.0,0.0,100,0.00,,,0.00,VWS V14.01,2013-05-08 13:05:00,
2013-05-08 09:10:00,55.2,55.2,30.03,East,90,0.0,0.0,100,0.00,,,0.00,VWS V14.01,2013-05-08 13:10:00,
2013-05-08 09:15:00,55.3,55.3,30.03,ENE,68,0.0,0.0,100,0.00,,,0.00,VWS V14.01,2013-05-08 13:15:00,
2013-05-08 09:20:00,55.7,55.7,30.03,NW,315,0.0,0.0,100,0.00,,,0.00,VWS V14.01,2013-05-08 13:20:00,
2013-05-08 09:25:00,55.7,55.7,30.03,NNW,338,0.0,0.0,100,0.00,,,0.00,VWS V14.01,2013-05-08 13:25:00,
2013-05-08 09:30:00,55.5,55.5,30.03,South,180,0.0,0.0,100,0.00,,,0.00,VWS V14.01,2013-05-08 13:30:00,
2013-05-08 09:35:00,56.6,56.6,30.06,South,180,0.0,0.0,100,0.00,,,0.00,VWS V14.01,2013-05-08 13:35:00,
2013-05-08 09:40:00,57.0,55.1,30.06,NNE,22,2.0,2.0,94,0.00,,,0.00,VWS V14.01,2013-05-08 13:40:00,
2013-05-08 09:45:00,57.8,51.9,30.06,WSW,248,0.0,0.0,80,0.00,,,0.00,VWS V14.01,2013-05-08 13:45:00,
2013-05-08 09:50:00,58.4,49.6,30.06,NNW,338,1.3,1.3,72,0.00,,,0.00,VWS V14.01,2013-05-08 13:50:00,
2013-05-08 09:55:00,58.6,49.4,30.06,NNE,22,0.0,0.0,72,0.00,,,0.00,VWS V14.01,2013-05-08 13:55:00,
2013-05-08 10:00:00,58.8,49.2,30.06,NW,315,0.0,0.0,70,0.00,,,0.00,VWS V14.01,2013-05-08 14:00:00,
2013-05-08 10:05:00,59.1,48.8,30.06,SE,135,1.3,1.3,68,0.00,,,0.00,VWS V14.01,2013-05-08 14:05:00,
2013-05-08 10:10:00,59.7,48.9,30.06,SE,135,1.6,1.6,68,0.00,,,0.00,VWS V14.01,2013-05-08 14:10:00,
2013-05-08 10:15:00,59.7,48.5,30.06,ENE,68,0.9,0.9,66,0.00,,,0.00,VWS V14.01,2013-05-08 14:15:00,
2013-05-08 10:20:00,60.0,49.6,30.06,ENE,68,0.0,0.0,68,0.00,,,0.00,VWS V14.01,2013-05-08 14:20:00,
2013-05-08 10:25:00,60.9,50.9,30.06,NNW,338,2.5,2.5,70,0.00,,,0.00,VWS V14.01,2013-05-08 14:25:00,
2013-05-08 10:30:00,60.5,49.0,30.06,NNW,338,2.2,2.2,66,0.00,,,0.00,VWS V14.01,2013-05-08 14:30:00,
2013-05-08 10:35:00,60.9,49.7,30.06,NNW,338,2.5,2.5,66,0.00,,,0.00,VWS V14.01,2013-05-08 14:35:00,
2013-05-08 10:40:00,61.5,49.8,30.06,WNW,292,2.7,2.7,66,0.00,,,0.00,VWS V14.01,2013-05-08 14:40:00,
2013-05-08 10:45:00,61.6,49.1,30.06,NE,45,0.0,0.0,64,0.00,,,0.00,VWS V14.01,2013-05-08 14:45:00,
2013-05-08 10:50:00,62.0,49.1,30.06,WSW,248,2.9,2.9,62,0.00,,,0.00,VWS V14.01,2013-05-08 14:50:00,
2013-05-08 10:55:00,62.0,49.5,30.06,NW,315,0.0,0.0,64,0.00,,,0.00,VWS V14.01,2013-05-08 14:55:00,
2013-05-08 11:00:00,62.9,50.8,30.06,NNW,338,3.1,3.1,64,0.00,,,0.00,VWS V14.01,2013-05-08 15:00:00,
2013-05-08 11:05:00,62.3,48.1,30.06,SSE,158,2.7,2.7,60,0.00,,,0.00,VWS V14.01,2013-05-08 15:05:00,
2013-05-08 11:10:00,62.7,49.3,30.06,WNW,292,1.6,1.6,62,0.00,,,0.00,VWS V14.01,2013-05-08 15:10:00,
2013-05-08 11:15:00,62.9,49.5,30.06,East,90,2.5,2.5,62,0.00,,,0.00,VWS V14.01,2013-05-08 15:15:00,
2013-05-08 11:20:00,63.2,48.5,30.06,NNE,22,2.0,2.0,58,0.00,,,0.00,VWS V14.01,2013-05-08 15:20:00,
2013-05-08 11:25:00,63.2,48.5,30.06,NNW,338,3.6,3.6,58,0.00,,,0.00,VWS V14.01,2013-05-08 15:25:00,
2013-05-08 11:30:00,63.1,49.2,30.06,NNE,22,0.9,0.9,60,0.00,,,0.00,VWS V14.01,2013-05-08 15:30:00,
2013-05-08 11:35:00,63.8,49.4,30.06,NNE,22,0.9,0.9,60,0.00,,,0.00,VWS V14.01,2013-05-08 15:35:00,
2013-05-08 11:40:00,63.8,49.0,30.06,NNE,22,3.8,3.8,58,0.00,,,0.00,VWS V14.01,2013-05-08 15:40:00,
2013-05-08 11:45:00,63.8,49.0,30.06,WNW,292,1.3,1.3,58,0.00,,,0.00,VWS V14.01,2013-05-08 15:45:00,
2013-05-08 11:50:00,64.0,48.7,30.06,NNW,338,1.3,1.3,58,0.00,,,0.00,VWS V14.01,2013-05-08 15:50:00,
2013-05-08 11:55:00,64.2,49.3,30.06,NNW,338,2.2,2.2,58,0.00,,,0.00,VWS V14.01,2013-05-08 15:55:00,
2013-05-08 12:00:00,63.6,48.3,30.06,NNW,338,1.3,1.3,58,0.00,,,0.00,VWS V14.01,2013-05-08 16:00:00,
2013-05-08 12:05:00,64.3,49.0,30.06,NNE,22,3.4,3.4,58,0.00,,,0.00,VWS V14.01,2013-05-08 16:05:00,
2013-05-08 12:10:00,64.3,49.0,30.06,NE,45,1.1,1.1,58,0.00,,,0.00,VWS V14.01,2013-05-08 16:10:00,
2013-05-08 12:15:00,64.2,48.9,30.06,NNW,338,1.6,1.6,58,0.00,,,0.00,VWS V14.01,2013-05-08 16:15:00,
2013-05-08 12:20:00,63.4,48.2,30.06,ENE,68,3.1,3.1,58,0.00,,,0.00,VWS V14.01,2013-05-08 16:20:00,
2013-05-08 12:25:00,63.2,48.9,30.06,WNW,292,0.9,0.9,60,0.00,,,0.00,VWS V14.01,2013-05-08 16:25:00,
2013-05-08 12:30:00,63.1,50.1,30.06,WNW,292,2.2,2.2,62,0.00,,,0.00,VWS V14.01,2013-05-08 16:30:00,
2013-05-08 12:35:00,62.9,49.0,30.06,NW,315,2.2,2.2,60,0.00,,,0.00,VWS V14.01,2013-05-08 16:35:00,
2013-05-08 12:40:00,62.9,49.9,30.06,SSW,202,0.0,0.0,62,0.00,,,0.00,VWS V14.01,2013-05-08 16:40:00,
2013-05-08 12:45:00,63.1,49.6,30.06,NE,45,0.0,0.0,62,0.00,,,0.00,VWS V14.01,2013-05-08 16:45:00,
2013-05-08 12:50:00,63.4,48.2,30.06,NNW,338,3.4,3.4,58,0.00,,,0.00,VWS V14.01,2013-05-08 16:50:00,
2013-05-08 12:55:00,63.8,49.0,30.06,SSE,158,0.0,0.0,58,0.00,,,0.00,VWS V14.01,2013-05-08 16:55:00,
2013-05-08 13:00:00,64.0,48.7,30.06,East,90,0.0,0.0,58,0.00,,,0.00,VWS V14.01,2013-05-08 17:00:00,
2013-05-08 13:05:00,64.0,48.7,30.06,NNW,338,2.5,2.5,58,0.00,,,0.00,VWS V14.01,2013-05-08 17:05:00,
2013-05-08 13:10:00,64.0,49.2,30.06,NNW,338,1.1,1.1,58,0.00,,,0.00,VWS V14.01,2013-05-08 17:10:00,
2013-05-08 13:15:00,64.0,49.6,30.06,NNW,338,2.0,2.0,60,0.00,,,0.00,VWS V14.01,2013-05-08 17:15:00,
2013-05-08 13:20:00,64.0,48.2,30.06,NNE,22,2.7,2.7,56,0.00,,,0.00,VWS V14.01,2013-05-08 17:20:00,
2013-05-08 13:25:00,64.3,49.9,30.06,WSW,248,2.2,2.2,60,0.00,,,0.00,VWS V14.01,2013-05-08 17:25:00,
2013-05-08 13:30:00,64.7,48.9,30.06,NW,315,2.2,2.2,56,0.00,,,0.00,VWS V14.01,2013-05-08 17:30:00,
2013-05-08 13:35:00,65.2,48.9,30.06,NNE,22,2.5,2.5,56,0.00,,,0.00,VWS V14.01,2013-05-08 17:35:00,
2013-05-08 13:40:00,65.2,48.9,30.06,NNE,22,2.2,2.2,56,0.00,,,0.00,VWS V14.01,2013-05-08 17:40:00,
2013-05-08 13:45:00,65.2,48.9,30.06,WSW,248,2.9,2.9,56,0.00,,,0.00,VWS V14.01,2013-05-08 17:45:00,
2013-05-08 13:50:00,64.7,48.9,30.03,WNW,292,2.0,2.0,56,0.00,,,0.00,VWS V14.01,2013-05-08 17:50:00,
2013-05-08 13:55:00,64.7,49.4,30.03,WNW,292,1.3,1.3,58,0.00,,,0.00,VWS V14.01,2013-05-08 17:55:00,
2013-05-08 14:00:00,64.5,48.7,30.03,SE,135,3.8,3.8,56,0.00,,,0.00,VWS V14.01,2013-05-08 18:00:00,
2013-05-08 14:05:00,64.7,48.9,30.06,NNE,22,1.3,1.3,56,0.00,,,0.00,VWS V14.01,2013-05-08 18:05:00,
2013-05-08 14:10:00,65.2,48.4,30.06,NNW,338,1.3,1.3,54,0.00,,,0.00,VWS V14.01,2013-05-08 18:10:00,
2013-05-08 14:15:00,65.6,48.3,30.06,North,0,1.6,1.6,54,0.00,,,0.00,VWS V14.01,2013-05-08 18:15:00,
2013-05-08 14:20:00,65.8,48.9,30.03,WNW,292,0.9,0.9,54,0.00,,,0.00,VWS V14.01,2013-05-08 18:20:00,
2013-05-08 14:25:00,65.8,48.9,30.03,NNW,338,1.3,1.3,54,0.00,,,0.00,VWS V14.01,2013-05-08 18:25:00,
2013-05-08 14:30:00,65.8,48.9,30.03,WNW,292,2.7,2.7,54,0.00,,,0.00,VWS V14.01,2013-05-08 18:30:00,
2013-05-08 14:35:00,65.6,48.8,30.03,WNW,292,1.1,1.1,54,0.00,,,0.00,VWS V14.01,2013-05-08 18:35:00,
2013-05-08 14:40:00,65.4,48.1,30.03,NNW,338,1.3,1.3,54,0.00,,,0.00,VWS V14.01,2013-05-08 18:40:00,
2013-05-08 14:45:00,65.2,48.4,30.03,West,270,0.9,0.9,54,0.00,,,0.00,VWS V14.01,2013-05-08 18:45:00,
2013-05-08 14:50:00,65.2,49.4,30.03,NNW,338,0.0,0.0,56,0.00,,,0.00,VWS V14.01,2013-05-08 18:50:00,
2013-05-08 14:55:00,64.9,48.1,30.03,SSE,158,1.1,1.1,54,0.00,,,0.00,VWS V14.01,2013-05-08 18:55:00,
2013-05-08 15:00:00,65.1,48.8,30.03,South,180,0.0,0.0,56,0.00,,,0.00,VWS V14.01,2013-05-08 19:00:00,
2013-05-08 15:05:00,65.8,48.9,30.03,SE,135,3.1,3.1,54,0.00,,,0.00,VWS V14.01,2013-05-08 19:05:00,
2013-05-08 15:10:00,66.1,48.8,30.03,NNW,338,1.1,1.1,54,0.00,,,0.00,VWS V14.01,2013-05-08 19:10:00,
2013-05-08 15:15:00,67.0,50.1,30.03,SE,135,2.0,2.0,54,0.00,,,0.00,VWS V14.01,2013-05-08 19:15:00,
2013-05-08 15:20:00,67.6,50.1,30.03,NNW,338,1.6,1.6,54,0.00,,,0.00,VWS V14.01,2013-05-08 19:20:00,
2013-05-08 15:25:00,67.0,49.6,30.03,NNE,22,0.0,0.0,54,0.00,,,0.00,VWS V14.01,2013-05-08 19:25:00,
2013-05-08 15:30:00,66.5,49.1,30.03,West,270,0.0,0.0,54,0.00,,,0.00,VWS V14.01,2013-05-08 19:30:00,
2013-05-08 15:35:00,65.9,48.6,30.03,WNW,292,1.6,1.6,54,0.00,,,0.00,VWS V14.01,2013-05-08 19:35:00,
2013-05-08 15:40:00,66.7,49.3,30.03,East,90,3.6,3.6,54,0.00,,,0.00,VWS V14.01,2013-05-08 19:40:00,
2013-05-08 15:45:00,67.0,49.6,30.03,NNW,338,3.4,3.4,54,0.00,,,0.00,VWS V14.01,2013-05-08 19:45:00,
2013-05-08 15:50:00,66.7,49.3,30.03,NW,315,1.1,1.1,54,0.00,,,0.00,VWS V14.01,2013-05-08 19:50:00,
2013-05-08 15:55:00,66.7,49.8,30.03,NNW,338,0.0,0.0,54,0.00,,,0.00,VWS V14.01,2013-05-08 19:55:00,
2013-05-08 16:00:00,66.5,49.6,30.03,SSE,158,0.0,0.0,54,0.00,,,0.00,VWS V14.01,2013-05-08 20:00:00,
2013-05-08 16:05:00,67.0,49.6,30.03,NNW,338,1.6,1.6,54,0.00,,,0.00,VWS V14.01,2013-05-08 20:05:00,
2013-05-08 16:10:00,67.6,49.6,30.03,WNW,292,1.3,1.3,52,0.00,,,0.00,VWS V14.01,2013-05-08 20:10:00,
2013-05-08 16:15:00,67.4,48.4,30.03,WNW,292,0.0,0.0,50,0.00,,,0.00,VWS V14.01,2013-05-08 20:15:00,
2013-05-08 16:20:00,67.4,49.4,30.03,North,0,2.2,2.2,52,0.00,,,0.00,VWS V14.01,2013-05-08 20:20:00,
2013-05-08 16:25:00,67.0,49.6,30.03,North,0,1.1,1.1,54,0.00,,,0.00,VWS V14.01,2013-05-08 20:25:00,
2013-05-08 16:30:00,66.8,49.4,30.03,NNW,338,2.0,2.0,54,0.00,,,0.00,VWS V14.01,2013-05-08 20:30:00,
2013-05-08 16:35:00,66.8,49.9,30.06,NNW,338,0.9,0.9,54,0.00,,,0.00,VWS V14.01,2013-05-08 20:35:00,
2013-05-08 16:40:00,66.3,48.9,30.06,NNW,338,1.3,1.3,54,0.00,,,0.00,VWS V14.01,2013-05-08 20:40:00,
2013-05-08 16:45:00,66.1,49.3,30.06,WNW,292,0.0,0.0,54,0.00,,,0.00,VWS V14.01,2013-05-08 20:45:00,
2013-05-08 16:50:00,66.3,49.4,30.00,NW,315,1.3,1.3,54,0.00,,,0.00,VWS V14.01,2013-05-08 20:50:00,
2013-05-08 16:55:00,66.7,49.3,30.00,NW,315,2.5,2.5,54,0.00,,,0.00,VWS V14.01,2013-05-08 20:55:00,
2013-05-08 17:00:00,66.7,49.3,30.00,NW,315,2.9,2.9,54,0.00,,,0.00,VWS V14.01,2013-05-08 21:00:00,
2013-05-08 17:05:00,66.5,49.1,30.00,NNW,338,2.0,2.0,54,0.00,,,0.00,VWS V14.01,2013-05-08 21:05:00,
2013-05-08 17:10:00,66.5,49.6,30.00,NW,315,0.0,0.0,54,0.00,,,0.00,VWS V14.01,2013-05-08 21:10:00,
2013-05-08 17:15:00,65.9,49.1,30.00,NNW,338,0.0,0.0,54,0.00,,,0.00,VWS V14.01,2013-05-08 21:15:00,
2013-05-08 17:20:00,66.1,49.3,30.03,NW,315,1.3,1.3,54,0.00,,,0.00,VWS V14.01,2013-05-08 21:20:00,
2013-05-08 17:25:00,66.1,49.3,30.03,NNW,338,1.1,1.1,54,0.00,,,0.00,VWS V14.01,2013-05-08 21:25:00,
2013-05-08 17:30:00,66.1,50.2,30.03,West,270,2.9,2.9,56,0.00,,,0.00,VWS V14.01,2013-05-08 21:30:00,
2013-05-08 17:35:00,66.7,49.8,30.03,NNW,338,1.3,1.3,54,0.00,,,0.00,VWS V14.01,2013-05-08 21:35:00,
2013-05-08 17:40:00,67.0,50.1,30.03,NNW,338,1.6,1.6,54,0.00,,,0.00,VWS V14.01,2013-05-08 21:40:00,
2013-05-08 17:45:00,66.7,49.8,30.03,NNW,338,0.9,0.9,54,0.00,,,0.00,VWS V14.01,2013-05-08 21:45:00,
2013-05-08 17:50:00,66.5,49.6,30.03,WNW,292,2.5,2.5,54,0.00,,,0.00,VWS V14.01,2013-05-08 21:50:00,
2013-05-08 17:55:00,66.7,49.8,30.03,SW,225,0.0,0.0,54,0.00,,,0.00,VWS V14.01,2013-05-08 21:55:00,
2013-05-08 18:00:00,66.7,49.8,30.03,NNE,22,1.3,1.3,54,0.00,,,0.00,VWS V14.01,2013-05-08 22:00:00,
2013-05-08 18:05:00,66.5,49.6,30.03,West,270,0.0,0.0,54,0.00,,,0.00,VWS V14.01,2013-05-08 22:05:00,
2013-05-08 18:10:00,66.8,50.4,30.03,East,90,1.6,1.6,56,0.00,,,0.00,VWS V14.01,2013-05-08 22:10:00,
2013-05-08 18:15:00,66.8,50.4,30.03,WNW,292,2.9,2.9,56,0.00,,,0.00,VWS V14.01,2013-05-08 22:15:00,
2013-05-08 18:20:00,66.5,49.6,30.03,WSW,248,0.0,0.0,54,0.00,,,0.00,VWS V14.01,2013-05-08 22:20:00,
2013-05-08 18:25:00,66.3,49.4,30.03,NNW,338,2.2,2.2,54,0.00,,,0.00,VWS V14.01,2013-05-08 22:25:00,
2013-05-08 18:30:00,66.3,49.9,30.03,SSW,202,0.0,0.0,56,0.00,,,0.00,VWS V14.01,2013-05-08 22:30:00,
2013-05-08 18:35:00,65.8,49.4,30.03,SW,225,0.0,0.0,56,0.00,,,0.00,VWS V14.01,2013-05-08 22:35:00,
2013-05-08 18:40:00,65.8,48.9,30.03,SSW,202,0.0,0.0,54,0.00,,,0.00,VWS V14.01,2013-05-08 22:40:00,
2013-05-08 18:45:00,65.9,49.1,30.03,North,0,1.3,1.3,54,0.00,,,0.00,VWS V14.01,2013-05-08 22:45:00,
2013-05-08 18:50:00,65.9,49.6,30.03,NNE,22,0.0,0.0,56,0.00,,,0.00,VWS V14.01,2013-05-08 22:50:00,
2013-05-08 18:55:00,65.8,49.4,30.03,West,270,0.0,0.0,56,0.00,,,0.00,VWS V14.01,2013-05-08 22:55:00,
2013-05-08 19:00:00,65.4,49.6,30.03,SE,135,0.0,0.0,56,0.00,,,0.00,VWS V14.01,2013-05-08 23:00:00,
2013-05-08 19:05:00,65.2,50.8,30.03,NW,315,0.0,0.0,60,0.00,,,0.00,VWS V14.01,2013-05-08 23:05:00,
2013-05-08 19:10:00,64.9,50.5,30.03,SW,225,0.0,0.0,60,0.00,,,0.00,VWS V14.01,2013-05-08 23:10:00,
2013-05-08 19:15:00,64.7,50.3,30.03,SW,225,0.0,0.0,60,0.00,,,0.00,VWS V14.01,2013-05-08 23:15:00,
2013-05-08 19:20:00,64.5,51.0,30.03,SW,225,0.0,0.0,62,0.00,,,0.00,VWS V14.01,2013-05-08 23:20:00,
2013-05-08 19:25:00,64.3,51.3,30.03,SSE,158,0.0,0.0,62,0.00,,,0.00,VWS V14.01,2013-05-08 23:25:00,
2013-05-08 19:30:00,64.2,51.1,30.03,ENE,68,1.1,1.1,62,0.00,,,0.00,VWS V14.01,2013-05-08 23:30:00,
2013-05-08 19:35:00,64.2,51.1,30.00,NNW,338,0.0,0.0,62,0.00,,,0.00,VWS V14.01,2013-05-08 23:35:00,
2013-05-08 19:40:00,63.8,50.8,30.00,SSW,202,0.0,0.0,62,0.00,,,0.00,VWS V14.01,2013-05-08 23:40:00,
2013-05-08 19:45:00,63.4,49.5,30.00,SW,225,0.0,0.0,60,0.00,,,0.00,VWS V14.01,2013-05-08 23:45:00,
2013-05-08 19:50:00,63.4,49.5,30.03,SW,225,0.0,0.0,60,0.00,,,0.00,VWS V14.01,2013-05-08 23:50:00,
2013-05-08 19:55:00,63.2,49.4,30.03,SSW,202,0.0,0.0,60,0.00,,,0.00,VWS V14.01,2013-05-08 23:55:00,
2013-05-08 20:00:00,62.9,49.5,30.03,SSW,202,0.0,0.0,62,0.00,,,0.00,VWS V14.01,2013-05-09 00:00:00,
2013-05-08 20:05:00,62.5,50.0,30.03,South,180,0.0,0.0,64,0.00,,,0.00,VWS V14.01,2013-05-09 00:05:00,
2013-05-08 20:10:00,62.3,50.7,30.03,South,180,0.0,0.0,66,0.00,,,0.00,VWS V14.01,2013-05-09 00:10:00,
2013-05-08 20:15:00,62.3,50.2,30.03,South,180,0.0,0.0,64,0.00,,,0.00,VWS V14.01,2013-05-09 00:15:00,
2013-05-08 20:20:00,61.8,50.5,30.03,SSW,202,0.0,0.0,66,0.00,,,0.00,VWS V14.01,2013-05-09 00:20:00,
2013-05-08 20:25:00,61.6,50.4,30.03,WSW,248,0.0,0.0,66,0.00,,,0.00,VWS V14.01,2013-05-09 00:25:00,
2013-05-08 20:30:00,61.5,50.2,30.03,WSW,248,0.0,0.0,66,0.00,,,0.00,VWS V14.01,2013-05-09 00:30:00,
2013-05-08 20:35:00,61.3,50.4,30.06,WSW,248,0.0,0.0,68,0.00,,,0.00,VWS V14.01,2013-05-09 00:35:00,
2013-05-08 20:40:00,60.5,50.9,30.06,South,180,0.0,0.0,70,0.00,,,0.00,VWS V14.01,2013-05-09 00:40:00,
2013-05-08 20:45:00,60.4,51.1,30.06,South,180,0.0,0.0,72,0.00,,,0.00,VWS V14.01,2013-05-09 00:45:00,
2013-05-08 20:50:00,59.5,51.4,30.06,SSW,202,0.0,0.0,74,0.00,,,0.00,VWS V14.01,2013-05-09 00:50:00,
2013-05-08 20:55:00,59.5,52.4,30.06,SSW,202,0.0,0.0,78,0.00,,,0.00,VWS V14.01,2013-05-09 00:55:00,
2013-05-08 21:00:00,59.3,52.6,30.06,SSW,202,0.0,0.0,78,0.00,,,0.00,VWS V14.01,2013-05-09 01:00:00,
2013-05-08 21:05:00,58.4,51.7,30.06,South,180,2.0,2.0,78,0.00,,,0.00,VWS V14.01,2013-05-09 01:05:00,
2013-05-08 21:10:00,58.0,53.1,30.06,SSW,202,0.0,0.0,84,0.00,,,0.00,VWS V14.01,2013-05-09 01:10:00,
2013-05-08 21:15:00,57.5,53.5,30.06,SSW,202,0.0,0.0,86,0.00,,,0.00,VWS V14.01,2013-05-09 01:15:00,
2013-05-08 21:20:00,57.0,53.3,30.06,SSW,202,0.0,0.0,88,0.00,,,0.00,VWS V14.01,2013-05-09 01:20:00,
2013-05-08 21:25:00,57.1,54.1,30.06,SSW,202,0.0,0.0,90,0.00,,,0.00,VWS V14.01,2013-05-09 01:25:00,
2013-05-08 21:30:00,57.3,54.0,30.06,SSW,202,0.0,0.0,88,0.00,,,0.00,VWS V14.01,2013-05-09 01:30:00,
2013-05-08 21:35:00,56.8,53.4,30.06,SSE,158,0.0,0.0,88,0.00,,,0.00,VWS V14.01,2013-05-09 01:35:00,
2013-05-08 21:40:00,56.0,53.0,30.06,South,180,0.0,0.0,90,0.00,,,0.00,VWS V14.01,2013-05-09 01:40:00,
2013-05-08 21:45:00,55.9,54.3,30.06,SSW,202,0.0,0.0,94,0.00,,,0.00,VWS V14.01,2013-05-09 01:45:00,
2013-05-08 21:50:00,55.7,54.1,30.06,South,180,0.0,0.0,94,0.00,,,0.00,VWS V14.01,2013-05-09 01:50:00,
2013-05-08 21:55:00,55.5,54.0,30.06,South,180,0.0,0.0,94,0.00,,,0.00,VWS V14.01,2013-05-09 01:55:00,
2013-05-08 22:00:00,55.3,54.1,30.06,SSW,202,0.0,0.0,96,0.00,,,0.00,VWS V14.01,2013-05-09 02:00:00,
2013-05-08 22:05:00,55.0,53.7,30.09,South,180,0.0,0.0,96,0.00,,,0.00,VWS V14.01,2013-05-09 02:05:00,
2013-05-08 22:10:00,54.4,53.5,30.09,South,180,0.0,0.0,96,0.00,,,0.00,VWS V14.01,2013-05-09 02:10:00,
2013-05-08 22:15:00,54.4,53.7,30.09,South,180,0.0,0.0,98,0.00,,,0.00,VWS V14.01,2013-05-09 02:15:00,
2013-05-08 22:20:00,54.4,54.4,30.09,SSW,202,0.0,0.0,100,0.00,,,0.00,VWS V14.01,2013-05-09 02:20:00,
2013-05-08 22:25:00,54.1,54.1,30.09,SSW,202,0.0,0.0,100,0.00,,,0.00,VWS V14.01,2013-05-09 02:25:00,
2013-05-08 22:30:00,53.2,51.6,30.09,SSW,202,0.0,0.0,94,0.00,,,0.00,VWS V14.01,2013-05-09 02:30:00,
2013-05-08 22:35:00,53.3,53.2,30.09,South,180,0.0,0.0,100,0.00,,,0.00,VWS V14.01,2013-05-09 02:35:00,
2013-05-08 22:40:00,53.3,53.4,30.09,South,180,0.0,0.0,100,0.00,,,0.00,VWS V14.01,2013-05-09 02:40:00,
2013-05-08 22:45:00,53.2,53.2,30.09,South,180,0.0,0.0,100,0.00,,,0.00,VWS V14.01,2013-05-09 02:45:00,
2013-05-08 22:50:00,52.5,52.5,30.12,South,180,0.0,0.0,100,0.00,,,0.00,VWS V14.01,2013-05-09 02:50:00,
2013-05-08 22:55:00,52.6,52.6,30.12,South,180,0.0,0.0,100,0.00,,,0.00,VWS V14.01,2013-05-09 02:55:00,
2013-05-08 23:00:00,52.6,52.6,30.12,South,180,0.0,0.0,100,0.00,,,0.00,VWS V14.01,2013-05-09 03:00:00,
2013-05-08 23:05:00,52.6,52.6,30.12,South,180,0.0,0.0,100,0.00,,,0.00,VWS V14.01,2013-05-09 03:05:00,
2013-05-08 23:10:00,52.3,52.3,30.12,South,180,0.0,0.0,100,0.00,,,0.00,VWS V14.01,2013-05-09 03:10:00,
2013-05-08 23:14:00,52.5,52.5,30.12,South,180,0.0,0.0,100,0.00,,,0.00,VWS V14.01,2013-05-09 03:14:00,
2013-05-08 23:15:00,52.3,52.3,30.12,South,180,0.0,0.0,100,0.00,,,0.00,VWS V14.01,2013-05-09 03:15:00,
2013-05-08 23:19:00,52.3,52.3,30.09,South,180,0.0,0.0,100,0.00,,,0.00,VWS V14.01,2013-05-09 03:19:00,
2013-05-08 23:24:00,51.7,51.7,30.09,SSW,202,0.0,0.0,100,0.00,,,0.00,VWS V14.01,2013-05-09 03:24:00,
2013-05-08 23:29:00,51.5,51.6,30.09,South,180,0.0,0.0,100,0.00,,,0.00,VWS V14.01,2013-05-09 03:29:00,
2013-05-08 23:30:00,51.4,51.4,30.09,South,180,0.0,0.0,100,0.00,,,0.00,VWS V14.01,2013-05-09 03:30:00,
2013-05-08 23:34:00,51.2,51.2,30.09,South,180,0.0,0.0,100,0.00,,,0.00,VWS V14.01,2013-05-09 03:34:00,
2013-05-08 23:39:00,51.4,51.4,30.09,South,180,0.0,0.0,100,0.00,,,0.00,VWS V14.01,2013-05-09 03:39:00,
2013-05-08 23:44:00,50.8,50.8,30.09,South,180,0.0,0.0,100,0.00,,,0.00,VWS V14.01,2013-05-09 03:44:00,
2013-05-08 23:45:00,50.8,50.8,30.09,South,180,0.0,0.0,100,0.00,,,0.00,VWS V14.01,2013-05-09 03:45:00,
2013-05-08 23:49:00,50.8,50.8,30.09,South,180,0.0,0.0,100,0.00,,,0.00,VWS V14.01,2013-05-09 03:49:00,
2013-05-08 23:54:00,51.5,51.6,30.09,SSW,202,0.0,0.0,100,0.00,,,0.00,VWS V14.01,2013-05-09 03:54:00,
2013-05-08 23:59:00,51.0,51.0,30.09,South,180,0.0,0.0,100,0.00,,,0.00,VWS V14.01,2013-05-09 03:59:00,